createdAt,value
2022-09-12T00:01:19.573Z,1.10
2022-09-12T00:03:47.991Z,0.93
2022-09-12T00:06:29.163Z,1.07
2022-09-12T00:09:00.746Z,0.93
2022-09-12T00:11:29.002Z,1.20
2022-09-12T00:13:59.499Z,0.90
2022-09-12T00:16:31.002Z,1.30
2022-09-12T00:18:59.518Z,0.70
2022-09-12T00:21:28.004Z,0.57
2022-09-12T00:23:55.767Z,0.60
2022-09-12T00:26:23.062Z,0.53
2022-09-12T00:28:51.138Z,0.90
2022-09-12T00:31:24.167Z,0.43
2022-09-12T00:33:52.286Z,0.50
2022-09-12T00:36:22.739Z,0.80
2022-09-12T00:38:52.092Z,0.80
2022-09-12T00:41:37.095Z,1.00
2022-09-12T00:44:13.412Z,0.97
2022-09-12T00:46:46.136Z,0.80
2022-09-12T00:49:23.066Z,0.67
2022-09-12T00:52:04.455Z,0.83
2022-09-12T00:55:03.466Z,1.00
2022-09-12T00:57:41.570Z,0.90
2022-09-12T01:00:16.802Z,1.10
2022-09-12T01:02:53.098Z,1.20
2022-09-12T01:05:22.721Z,0.40
2022-09-12T01:07:52.485Z,1.07
2022-09-12T01:10:21.302Z,1.03
2022-09-12T01:12:49.228Z,0.70
2022-09-12T01:15:16.424Z,0.67
2022-09-12T01:18:12.925Z,1.10
2022-09-12T01:21:18.151Z,0.90
2022-09-12T01:24:29.123Z,1.00
2022-09-12T01:27:33.192Z,1.20
2022-09-12T01:30:44.767Z,1.37
2022-09-12T01:33:35.924Z,2.20
2022-09-12T01:36:30.149Z,1.50
2022-09-12T01:39:04.554Z,1.43
2022-09-12T01:42:00.230Z,1.60
2022-09-12T01:44:50.086Z,2.10
2022-09-12T01:47:45.046Z,1.27
2022-09-12T01:50:24.688Z,2.00
2022-09-12T01:53:17.142Z,2.23
2022-09-12T01:55:52.932Z,1.80
2022-09-12T01:58:29.281Z,2.20
2022-09-12T02:01:03.622Z,1.67
2022-09-12T02:03:45.149Z,1.63
2022-09-12T02:06:29.501Z,1.93
2022-09-12T02:09:14.437Z,2.03
2022-09-12T02:11:44.478Z,2.23
2022-09-12T02:14:24.474Z,1.60
2022-09-12T02:17:02.655Z,1.10
2022-09-12T02:19:40.734Z,2.10
2022-09-12T02:22:15.796Z,1.47
2022-09-12T02:24:48.812Z,0.73
2022-09-12T02:27:21.547Z,1.40
2022-09-12T02:29:50.359Z,1.97
2022-09-12T02:32:48.436Z,1.60
2022-09-12T02:35:31.383Z,1.77
2022-09-12T02:38:09.902Z,1.10
2022-09-12T02:40:38.217Z,2.17
2022-09-12T02:43:07.214Z,2.13
2022-09-12T02:45:37.233Z,1.80
2022-09-12T02:48:24.394Z,1.53
2022-09-12T02:50:51.979Z,1.57
2022-09-12T02:53:19.977Z,2.23
2022-09-12T02:55:47.562Z,1.60
2022-09-12T02:58:24.850Z,1.53
2022-09-12T03:01:10.234Z,1.93
2022-09-12T03:03:46.668Z,1.57
2022-09-12T03:06:25.719Z,1.77
2022-09-12T03:09:09.796Z,1.57
2022-09-12T03:12:24.134Z,2.00
2022-09-12T03:14:51.609Z,1.47
2022-09-12T03:17:46.913Z,1.87
2022-09-12T03:20:45.082Z,1.70
2022-09-12T03:23:53.580Z,1.50
2022-09-12T03:26:33.388Z,1.60
2022-09-12T03:29:05.075Z,2.07
2022-09-12T03:31:33.154Z,2.47
2022-09-12T03:34:00.799Z,1.50
2022-09-12T03:36:30.233Z,1.93
2022-09-12T03:38:57.951Z,2.20
2022-09-12T03:41:25.318Z,1.47
2022-09-12T03:43:52.626Z,1.97
2022-09-12T03:46:20.235Z,2.60
2022-09-12T03:48:47.354Z,1.73
2022-09-12T03:51:14.742Z,1.90
2022-09-12T03:53:42.619Z,2.17
2022-09-12T03:56:13.701Z,1.93
2022-09-12T03:58:41.946Z,2.20
2022-09-12T04:01:18.077Z,2.87
2022-09-12T04:03:48.552Z,1.80
2022-09-12T04:06:20.762Z,7.67
2022-09-12T04:08:54.213Z,6.20
2022-09-12T04:11:23.073Z,3.37
2022-09-12T04:13:50.791Z,1.77
2022-09-12T04:16:19.210Z,2.17
2022-09-12T04:18:47.428Z,2.07
2022-09-12T04:21:19.750Z,2.70
2022-09-12T04:23:47.476Z,2.87
2022-09-12T04:26:18.471Z,2.50
2022-09-12T04:28:46.806Z,1.90
2022-09-12T04:31:20.871Z,2.17
2022-09-12T04:33:53.336Z,2.03
2022-09-12T04:36:20.715Z,2.17
2022-09-12T04:38:48.940Z,2.57
2022-09-12T04:41:21.756Z,1.90
2022-09-12T04:43:55.233Z,1.77
2022-09-12T04:46:22.738Z,2.33
2022-09-12T04:48:53.360Z,2.80
2022-09-12T04:51:29.704Z,3.13
2022-09-12T04:54:01.273Z,3.33
2022-09-12T04:56:30.492Z,2.67
2022-09-12T04:59:00.815Z,3.30
2022-09-12T05:01:30.163Z,3.07
2022-09-12T05:04:00.045Z,2.53
2022-09-12T05:06:38.687Z,2.70
2022-09-12T05:09:08.384Z,2.63
2022-09-12T05:12:03.365Z,2.83
2022-09-12T05:14:26.706Z,2.50
2022-09-12T05:16:54.185Z,1.43
2022-09-12T05:19:21.809Z,1.73
2022-09-12T05:21:48.914Z,2.20
2022-09-12T05:24:16.228Z,1.57
2022-09-12T05:26:43.485Z,1.53
2022-09-12T05:29:11.815Z,1.93
2022-09-12T05:31:39.335Z,1.77
2022-09-12T05:34:10.179Z,2.40
2022-09-12T05:36:38.633Z,1.87
2022-09-12T05:39:06.192Z,1.33
2022-09-12T05:41:34.970Z,0.87
2022-09-12T05:44:06.733Z,1.03
2022-09-12T05:46:41.339Z,1.97
2022-09-12T05:49:12.325Z,1.40
2022-09-12T05:51:45.579Z,0.93
2022-09-12T05:54:17.954Z,1.53
2022-09-12T05:56:45.794Z,1.43
2022-09-12T05:59:21.015Z,1.80
2022-09-12T06:01:49.236Z,1.20
2022-09-12T06:04:17.061Z,1.40
2022-09-12T06:06:46.049Z,1.10
2022-09-12T06:09:16.407Z,1.40
2022-09-12T06:11:45.155Z,1.67
2022-09-12T06:14:16.766Z,1.43
2022-09-12T06:16:44.221Z,1.83
2022-09-12T06:19:20.647Z,1.43
2022-09-12T06:21:49.781Z,1.80
2022-09-12T06:24:20.044Z,1.73
2022-09-12T06:26:49.483Z,2.07
2022-09-12T06:29:17.142Z,4.27
2022-09-12T06:31:45.529Z,8.03
2022-09-12T06:34:15.777Z,1.73
2022-09-12T06:36:48.025Z,1.90
2022-09-12T06:39:19.050Z,2.00
2022-09-12T06:41:48.515Z,1.53
2022-09-12T06:44:21.831Z,2.10
2022-09-12T06:46:49.967Z,1.67
2022-09-12T06:49:17.873Z,1.77
2022-09-12T06:51:45.574Z,1.40
2022-09-12T06:54:20.490Z,1.73
2022-09-12T06:56:48.135Z,1.60
2022-09-12T06:59:15.141Z,1.50
2022-09-12T07:01:42.954Z,1.47
2022-09-12T07:04:11.020Z,1.30
2022-09-12T07:06:41.943Z,1.27
2022-09-12T07:09:13.945Z,1.07
2022-09-12T07:11:44.189Z,1.00
2022-09-12T07:14:15.095Z,1.07
2022-09-12T07:16:43.124Z,1.03
2022-09-12T07:19:10.905Z,1.23
2022-09-12T07:21:41.659Z,1.30
2022-09-12T07:24:11.027Z,0.90
2022-09-12T07:26:40.707Z,0.97
2022-09-12T07:29:35.415Z,0.80
2022-09-12T07:31:58.175Z,1.23
2022-09-12T07:34:25.652Z,1.00
2022-09-12T07:36:53.053Z,1.03
2022-09-12T07:39:20.709Z,0.83
2022-09-12T07:41:47.759Z,1.17
2022-09-12T07:44:15.216Z,1.53
2022-09-12T07:46:42.720Z,1.40
2022-09-12T07:49:12.216Z,0.80
2022-09-12T07:51:40.568Z,1.37
2022-09-12T07:54:10.873Z,1.90
2022-09-12T07:56:39.346Z,1.30
2022-09-12T07:59:08.038Z,0.83
2022-09-12T08:01:35.628Z,0.87
2022-09-12T08:04:05.030Z,1.17
2022-09-12T08:06:35.966Z,0.50
2022-09-12T08:09:05.486Z,0.70
2022-09-12T08:11:32.654Z,0.90
2022-09-12T08:14:03.314Z,0.90
2022-09-12T08:16:32.385Z,1.00
2022-09-12T08:19:02.858Z,0.77
2022-09-12T08:21:33.292Z,1.40
2022-09-12T08:24:06.019Z,0.70
2022-09-12T08:26:34.302Z,0.70
2022-09-12T08:29:02.742Z,1.03
2022-09-12T08:31:36.538Z,0.80
2022-09-12T08:34:06.609Z,0.70
2022-09-12T08:36:35.098Z,0.90
2022-09-12T08:39:06.458Z,0.80
2022-09-12T08:41:38.575Z,0.60
2022-09-12T08:44:26.855Z,0.70
2022-09-12T08:47:17.446Z,0.90
2022-09-12T08:49:53.453Z,0.60
2022-09-12T08:52:44.024Z,1.23
2022-09-12T08:55:43.068Z,0.73
2022-09-12T08:58:17.221Z,1.37
2022-09-12T09:01:07.928Z,0.60
2022-09-12T09:03:53.243Z,1.07
2022-09-12T09:07:03.471Z,1.20
2022-09-12T09:10:01.241Z,1.00
2022-09-12T09:13:35.974Z,0.70
2022-09-12T09:16:41.234Z,0.53
2022-09-12T09:19:25.961Z,0.67
2022-09-12T09:22:16.912Z,0.53
2022-09-12T09:24:51.988Z,0.70
2022-09-12T09:27:46.577Z,0.60
2022-09-12T09:30:24.190Z,0.60
2022-09-12T09:32:56.819Z,1.07
2022-09-12T09:35:49.232Z,0.70
2022-09-12T09:38:50.005Z,0.70
2022-09-12T09:41:56.950Z,0.80
2022-09-12T09:44:24.439Z,0.83
2022-09-12T09:46:58.289Z,0.83
2022-09-12T09:49:31.374Z,0.80
2022-09-12T09:52:01.402Z,0.90
2022-09-12T09:54:43.611Z,0.73
2022-09-12T09:57:35.919Z,1.00
2022-09-12T10:00:33.674Z,1.00
2022-09-12T10:03:11.323Z,0.83
2022-09-12T10:06:00.541Z,0.80
2022-09-12T10:08:35.409Z,0.70
2022-09-12T10:11:17.104Z,1.03
2022-09-12T10:13:57.737Z,0.83
2022-09-12T10:16:27.932Z,0.90
2022-09-12T10:18:59.227Z,0.80
2022-09-12T10:21:34.150Z,1.03
2022-09-12T10:24:12.988Z,0.73
2022-09-12T10:26:42.157Z,0.70
2022-09-12T10:29:30.022Z,0.90
2022-09-12T10:32:06.592Z,0.63
2022-09-12T10:34:58.935Z,0.93
2022-09-12T10:37:37.617Z,0.50
2022-09-12T10:40:20.571Z,0.90
2022-09-12T10:43:00.113Z,0.80
2022-09-12T10:45:32.879Z,1.43
2022-09-12T10:48:07.359Z,1.30
2022-09-12T10:50:43.420Z,1.00
2022-09-12T10:53:18.472Z,1.00
2022-09-12T10:56:04.176Z,0.80
2022-09-12T10:58:50.497Z,0.90
2022-09-12T11:01:47.316Z,1.17
2022-09-12T11:04:39.223Z,0.90
2022-09-12T11:07:47.296Z,0.90
2022-09-12T11:10:41.471Z,0.83
2022-09-12T11:13:47.893Z,0.90
2022-09-12T11:16:41.094Z,0.80
2022-09-12T11:19:47.358Z,0.70
2022-09-12T11:22:32.301Z,1.20
2022-09-12T11:25:24.308Z,1.00
2022-09-12T11:28:00.526Z,1.13
2022-09-12T11:30:55.519Z,0.80
2022-09-12T11:33:34.485Z,1.30
2022-09-12T11:36:07.450Z,1.07
2022-09-12T11:38:49.879Z,1.00
2022-09-12T11:41:35.201Z,0.80
2022-09-12T11:44:24.858Z,2.17
2022-09-12T11:46:52.603Z,0.80
2022-09-12T11:49:22.524Z,0.77
2022-09-12T11:52:03.104Z,1.10
2022-09-12T11:54:40.135Z,0.50
2022-09-12T11:57:32.957Z,1.30
2022-09-12T12:00:23.298Z,0.70
2022-09-12T12:03:20.779Z,0.63
2022-09-12T12:06:05.940Z,0.70
2022-09-12T12:08:41.573Z,1.00
2022-09-12T12:11:12.292Z,1.17
2022-09-12T12:14:02.203Z,1.23
2022-09-12T12:16:38.308Z,1.07
2022-09-12T12:19:34.380Z,0.77
2022-09-12T12:22:28.357Z,0.60
2022-09-12T12:25:04.190Z,1.00
2022-09-12T12:27:56.789Z,1.10
2022-09-12T12:30:56.260Z,0.93
2022-09-12T12:33:43.673Z,0.80
2022-09-12T12:36:30.911Z,1.43
2022-09-12T12:38:59.944Z,0.73
2022-09-12T12:41:36.197Z,0.90
2022-09-12T12:44:45.093Z,0.90
2022-09-12T12:47:24.249Z,0.70
2022-09-12T12:49:58.296Z,0.47
2022-09-12T12:52:28.368Z,0.80
2022-09-12T12:55:04.280Z,0.80
2022-09-12T12:58:02.389Z,0.70
2022-09-12T13:00:40.965Z,0.77
2022-09-12T13:03:24.612Z,1.03
2022-09-12T13:06:00.557Z,0.67
2022-09-12T13:08:36.896Z,0.50
2022-09-12T13:11:11.911Z,0.80
2022-09-12T13:13:45.698Z,0.87
2022-09-12T13:16:30.686Z,0.67
2022-09-12T13:19:18.102Z,1.20
2022-09-12T13:22:07.549Z,0.60
2022-09-12T13:24:44.848Z,0.60
2022-09-12T13:27:25.526Z,0.70
2022-09-12T13:30:38.099Z,0.93
2022-09-12T13:33:23.152Z,0.87
2022-09-12T13:36:24.012Z,0.97
2022-09-12T13:39:50.906Z,0.50
2022-09-12T13:42:36.566Z,1.00
2022-09-12T13:45:19.534Z,0.90
2022-09-12T13:47:56.615Z,0.50
2022-09-12T13:50:31.953Z,0.93
2022-09-12T13:53:07.617Z,1.00
2022-09-12T13:55:40.617Z,0.73
2022-09-12T13:58:21.815Z,1.03
2022-09-12T14:01:10.606Z,0.70
2022-09-12T14:04:12.579Z,0.80
2022-09-12T14:06:49.569Z,0.73
2022-09-12T14:09:29.852Z,0.77
2022-09-12T14:11:58.997Z,0.50
2022-09-12T14:14:37.105Z,0.40
2022-09-12T14:17:20.810Z,0.80
2022-09-12T14:19:52.904Z,0.50
2022-09-12T14:22:20.571Z,0.50
2022-09-12T14:24:53.065Z,0.70
2022-09-12T14:27:36.105Z,0.87
2022-09-12T14:30:09.247Z,0.80
2022-09-12T14:32:36.483Z,0.60
2022-09-12T14:35:12.937Z,0.60
2022-09-12T14:37:40.535Z,0.40
2022-09-12T14:40:22.352Z,0.67
2022-09-12T14:42:59.224Z,0.57
2022-09-12T14:45:31.930Z,0.77
2022-09-12T14:47:59.848Z,0.40
2022-09-12T14:50:32.401Z,0.60
2022-09-12T14:53:26.350Z,0.60
2022-09-12T14:56:07.351Z,0.67
2022-09-12T14:58:34.956Z,0.47
2022-09-12T15:01:08.491Z,0.60
2022-09-12T15:03:51.954Z,0.60
2022-09-12T15:06:38.384Z,0.57
2022-09-12T15:09:13.758Z,0.20
2022-09-12T15:11:40.913Z,1.50
2022-09-12T15:14:15.641Z,0.70
2022-09-12T15:16:45.686Z,0.77
2022-09-12T15:19:13.550Z,0.90
2022-09-12T15:21:41.052Z,0.57
2022-09-12T15:24:09.547Z,0.53
2022-09-12T15:26:37.897Z,0.50
2022-09-12T15:29:05.421Z,0.60
2022-09-12T15:31:33.156Z,0.60
2022-09-12T15:34:02.462Z,0.30
2022-09-12T15:36:30.206Z,0.77
2022-09-12T15:38:58.711Z,0.50
2022-09-12T15:41:39.624Z,0.47
2022-09-12T15:44:12.305Z,0.40
2022-09-12T15:46:39.426Z,0.77
2022-09-12T15:49:07.291Z,0.97
2022-09-12T15:51:35.035Z,0.63
2022-09-12T15:54:04.615Z,0.80
2022-09-12T15:56:31.724Z,0.37
2022-09-12T15:59:00.079Z,0.30
2022-09-12T16:01:29.402Z,0.40
2022-09-12T16:03:57.596Z,0.40
2022-09-12T16:06:24.862Z,0.60
2022-09-12T16:08:51.985Z,0.37
2022-09-12T16:11:26.106Z,0.40
2022-09-12T16:13:55.784Z,0.40
2022-09-12T16:16:23.626Z,0.70
2022-09-12T16:18:52.313Z,1.10
2022-09-12T16:21:19.980Z,0.67
2022-09-12T16:23:48.621Z,0.60
2022-09-12T16:26:17.001Z,0.30
2022-09-12T16:28:47.337Z,0.40
2022-09-12T16:31:15.249Z,0.70
2022-09-12T16:33:43.027Z,0.60
2022-09-12T16:36:13.974Z,0.50
2022-09-12T16:38:43.923Z,0.50
2022-09-12T16:41:11.757Z,0.50
2022-09-12T16:43:39.513Z,0.37
2022-09-12T16:46:11.228Z,0.40
2022-09-12T16:48:49.367Z,0.70
2022-09-12T16:51:31.343Z,0.70
2022-09-12T16:53:58.874Z,0.47
2022-09-12T16:56:26.588Z,0.80
2022-09-12T16:58:54.580Z,0.80
2022-09-12T17:01:25.883Z,0.70
2022-09-12T17:03:56.744Z,0.37
2022-09-12T17:06:25.530Z,0.63
2022-09-12T17:08:55.693Z,0.57
2022-09-12T17:11:27.137Z,0.40
2022-09-12T17:14:04.887Z,0.63
2022-09-12T17:16:43.452Z,0.47
2022-09-12T17:19:25.694Z,1.00
2022-09-12T17:21:53.568Z,0.80
2022-09-12T17:24:21.439Z,0.53
2022-09-12T17:26:49.557Z,0.73
2022-09-12T17:29:18.221Z,0.77
2022-09-12T17:31:46.987Z,0.73
2022-09-12T17:34:17.686Z,0.50
2022-09-12T17:36:48.416Z,0.80
2022-09-12T17:39:17.348Z,0.83
2022-09-12T17:41:46.213Z,0.70
2022-09-12T17:44:20.083Z,0.87
2022-09-12T17:46:47.698Z,0.50
2022-09-12T17:49:18.769Z,0.83
2022-09-12T17:51:46.187Z,0.70
2022-09-12T17:54:17.417Z,1.53
2022-09-12T17:56:49.318Z,1.20
2022-09-12T17:59:21.849Z,0.67
2022-09-12T18:02:07.879Z,0.60
2022-09-12T18:04:35.608Z,0.80
2022-09-12T18:07:03.374Z,1.13
2022-09-12T18:09:31.139Z,0.63
2022-09-12T18:11:58.815Z,0.67
2022-09-12T18:14:28.025Z,0.90
2022-09-12T18:16:57.619Z,0.87
2022-09-12T18:19:27.223Z,0.97
2022-09-12T18:21:58.400Z,0.67
2022-09-12T18:24:29.501Z,0.57
2022-09-12T18:26:57.825Z,0.77
2022-09-12T18:29:28.320Z,1.07
2022-09-12T18:31:57.840Z,0.73
2022-09-12T18:34:25.944Z,1.33
2022-09-12T18:36:56.802Z,1.97
2022-09-12T18:39:27.930Z,0.70
2022-09-12T18:41:56.392Z,0.97
2022-09-12T18:44:26.069Z,1.17
2022-09-12T18:46:54.450Z,0.70
2022-09-12T18:49:22.747Z,0.90
2022-09-12T18:51:50.933Z,0.50
2022-09-12T18:54:19.241Z,0.50
2022-09-12T18:56:48.071Z,0.80
2022-09-12T18:59:16.427Z,0.60
2022-09-12T19:01:45.144Z,0.90
2022-09-12T19:04:15.293Z,0.90
2022-09-12T19:06:47.358Z,0.53
2022-09-12T19:09:19.228Z,0.80
2022-09-12T19:11:53.701Z,0.73
2022-09-12T19:14:25.200Z,0.70
2022-09-12T19:16:53.820Z,0.83
2022-09-12T19:19:22.196Z,1.10
2022-09-12T19:21:50.395Z,0.73
2022-09-12T19:24:20.914Z,0.80
2022-09-12T19:26:49.826Z,0.60
2022-09-12T19:29:18.836Z,1.03
2022-09-12T19:31:47.050Z,0.70
2022-09-12T19:34:14.970Z,0.47
2022-09-12T19:36:45.907Z,1.53
2022-09-12T19:39:16.321Z,0.70
2022-09-12T19:41:44.569Z,0.70
2022-09-12T19:44:12.366Z,0.83
2022-09-12T19:46:39.594Z,0.73
2022-09-12T19:49:07.396Z,0.60
2022-09-12T19:51:34.900Z,1.03
2022-09-12T19:54:03.343Z,4.07
2022-09-12T19:56:31.027Z,1.70
2022-09-12T19:58:58.566Z,1.30
2022-09-12T20:01:31.671Z,1.33
2022-09-12T20:03:59.671Z,0.73
2022-09-12T20:06:27.662Z,1.13
2022-09-12T20:08:55.593Z,1.23
2022-09-12T20:11:24.466Z,1.57
2022-09-12T20:13:54.666Z,1.00
2022-09-12T20:16:29.497Z,2.10
2022-09-12T20:19:02.392Z,1.03
2022-09-12T20:21:32.310Z,1.07
2022-09-12T20:24:14.421Z,0.77
2022-09-12T20:26:42.644Z,2.20
2022-09-12T20:29:11.198Z,0.97
2022-09-12T20:31:41.079Z,1.20
2022-09-12T20:34:14.904Z,0.87
2022-09-12T20:36:42.711Z,1.10
2022-09-12T20:39:20.123Z,1.83
2022-09-12T20:41:48.546Z,1.33
2022-09-12T20:44:16.545Z,1.33
2022-09-12T20:46:44.590Z,1.60
2022-09-12T20:49:11.922Z,1.13
2022-09-12T20:51:39.410Z,1.93
2022-09-12T20:54:08.121Z,1.63
2022-09-12T20:56:37.220Z,2.20
2022-09-12T20:59:05.890Z,1.60
2022-09-12T21:01:33.744Z,1.27
2022-09-12T21:04:01.706Z,1.37
2022-09-12T21:06:29.363Z,0.80
2022-09-12T21:09:00.871Z,0.90
2022-09-12T21:11:29.507Z,0.83
2022-09-12T21:13:57.992Z,1.40
2022-09-12T21:16:25.141Z,1.03
2022-09-12T21:18:58.598Z,1.53
2022-09-12T21:21:27.199Z,1.33
2022-09-12T21:24:02.971Z,1.27
2022-09-12T21:26:30.577Z,1.00
2022-09-12T21:28:58.487Z,0.87
2022-09-12T21:31:26.942Z,1.57
2022-09-12T21:33:54.190Z,1.43
2022-09-12T21:36:21.849Z,1.13
2022-09-12T21:38:48.963Z,1.00
2022-09-12T21:41:17.405Z,1.13
2022-09-12T21:43:45.243Z,1.77
2022-09-12T21:46:13.369Z,1.27
2022-09-12T21:48:42.612Z,1.50
2022-09-12T21:51:10.091Z,1.30
2022-09-12T21:53:38.331Z,1.07
2022-09-12T21:56:08.971Z,1.47
2022-09-12T21:58:37.518Z,1.30
2022-09-12T22:01:06.143Z,1.10
2022-09-12T22:03:33.854Z,1.07
2022-09-12T22:06:04.536Z,1.17
2022-09-12T22:08:33.727Z,1.10
2022-09-12T22:11:08.022Z,0.97
2022-09-12T22:13:42.819Z,0.90
2022-09-12T22:16:10.928Z,0.83
2022-09-12T22:18:39.033Z,1.07
2022-09-12T22:21:12.549Z,0.83
2022-09-12T22:23:58.454Z,1.00
2022-09-12T22:26:27.671Z,1.27
2022-09-12T22:28:55.579Z,1.73
2022-09-12T22:31:23.804Z,0.80
2022-09-12T22:33:51.534Z,1.03
2022-09-12T22:36:18.948Z,1.30
2022-09-12T22:38:46.418Z,1.80
2022-09-12T22:41:13.629Z,1.23
2022-09-12T22:43:41.149Z,1.70
2022-09-12T22:46:10.950Z,2.20
2022-09-12T22:48:39.239Z,1.10
2022-09-12T22:51:07.235Z,1.10
2022-09-12T22:53:35.522Z,1.10
2022-09-12T22:56:05.279Z,1.10
2022-09-12T22:58:35.657Z,0.77
2022-09-12T23:01:04.463Z,0.97
2022-09-12T23:03:32.154Z,1.23
2022-09-12T23:05:59.668Z,1.50
2022-09-12T23:08:29.717Z,1.57
2022-09-12T23:11:09.696Z,1.97
2022-09-12T23:13:37.895Z,2.20
2022-09-12T23:16:08.349Z,1.67
2022-09-12T23:18:36.895Z,1.13
2022-09-12T23:21:08.772Z,1.53
2022-09-12T23:23:36.919Z,0.73
2022-09-12T23:26:11.441Z,0.70
2022-09-12T23:28:56.993Z,0.80
2022-09-12T23:31:31.914Z,1.17
2022-09-12T23:34:02.506Z,0.73
2022-09-12T23:36:30.858Z,0.90
2022-09-12T23:38:58.636Z,1.23
2022-09-12T23:41:26.053Z,1.00
2022-09-12T23:43:53.843Z,1.40
2022-09-12T23:46:22.203Z,1.03
2022-09-12T23:48:50.084Z,1.17
2022-09-12T23:51:18.269Z,1.23
2022-09-12T23:53:45.692Z,0.87
2022-09-12T23:56:13.180Z,1.80
2022-09-12T23:58:40.850Z,1.10
